createdAt,value
2018-08-16T00:00:18.434Z,8.77
2018-08-16T00:02:47.450Z,8.40
2018-08-16T00:05:16.236Z,8.77
2018-08-16T00:07:44.890Z,9.40
2018-08-16T00:10:14.428Z,8.30
2018-08-16T00:12:44.443Z,8.27
2018-08-16T00:15:13.608Z,9.13
2018-08-16T00:17:42.071Z,9.00
2018-08-16T00:20:10.996Z,8.10
2018-08-16T00:22:39.485Z,8.10
2018-08-16T00:25:09.089Z,8.93
2018-08-16T00:27:37.602Z,8.60
2018-08-16T00:30:08.625Z,8.57
2018-08-16T00:32:37.288Z,8.63
2018-08-16T00:35:05.801Z,8.10
2018-08-16T00:37:34.273Z,10.07
2018-08-16T00:40:02.768Z,9.97
2018-08-16T00:42:33.870Z,9.63
2018-08-16T00:45:03.686Z,9.60
2018-08-16T00:47:32.968Z,10.23
2018-08-16T00:50:02.189Z,9.50
2018-08-16T00:52:31.002Z,9.53
2018-08-16T00:54:59.761Z,8.90
2018-08-16T00:57:28.574Z,9.07
2018-08-16T00:59:57.078Z,8.70
2018-08-16T01:02:25.472Z,8.57
2018-08-16T01:04:53.940Z,10.00
2018-08-16T01:07:22.431Z,9.00
2018-08-16T01:09:51.000Z,9.33
2018-08-16T01:12:19.500Z,9.83
2018-08-16T01:14:48.077Z,10.77
2018-08-16T01:17:16.774Z,13.60
2018-08-16T01:19:45.406Z,10.50
2018-08-16T01:22:14.196Z,10.70
2018-08-16T01:24:42.736Z,12.77
2018-08-16T01:27:11.252Z,16.87
2018-08-16T01:29:39.760Z,12.70
2018-08-16T01:32:08.324Z,12.03
2018-08-16T01:34:36.825Z,12.27
2018-08-16T01:37:05.320Z,12.77
2018-08-16T01:39:33.806Z,10.73
2018-08-16T01:42:02.587Z,10.33
2018-08-16T01:44:31.210Z,12.13
2018-08-16T01:46:59.949Z,11.43
2018-08-16T01:49:31.880Z,10.90
2018-08-16T01:52:01.099Z,12.20
2018-08-16T01:54:30.558Z,10.93
2018-08-16T01:57:00.351Z,10.97
2018-08-16T01:59:29.290Z,11.67
2018-08-16T02:01:58.258Z,11.73
2018-08-16T02:04:27.076Z,12.03
2018-08-16T02:06:55.589Z,11.53
2018-08-16T02:09:24.484Z,12.53
2018-08-16T02:11:53.366Z,12.33
2018-08-16T02:14:22.170Z,11.20
2018-08-16T02:16:51.509Z,11.33
2018-08-16T02:19:20.245Z,12.40
2018-08-16T02:21:48.744Z,12.57
2018-08-16T02:24:17.557Z,11.73
2018-08-16T02:26:46.019Z,12.60
2018-08-16T02:29:14.483Z,10.97
2018-08-16T02:31:42.957Z,12.40
2018-08-16T02:34:11.749Z,11.37
2018-08-16T02:36:40.301Z,12.40
2018-08-16T02:39:10.034Z,13.27
2018-08-16T02:41:39.352Z,13.17
2018-08-16T02:44:09.012Z,14.23
2018-08-16T02:46:38.040Z,11.70
2018-08-16T02:49:06.968Z,13.00
2018-08-16T02:51:36.159Z,12.33
2018-08-16T02:54:05.405Z,11.50
2018-08-16T02:56:34.601Z,12.57
2018-08-16T02:59:03.420Z,11.60
2018-08-16T03:01:32.123Z,13.03
2018-08-16T03:04:00.766Z,12.20
2018-08-16T03:06:29.513Z,12.97
2018-08-16T03:08:57.955Z,12.73
2018-08-16T03:11:26.377Z,13.13
2018-08-16T03:13:54.841Z,13.87
2018-08-16T03:16:24.039Z,14.27
2018-08-16T03:18:53.693Z,13.40
2018-08-16T03:21:23.239Z,12.93
2018-08-16T03:23:51.966Z,14.37
2018-08-16T03:26:21.907Z,15.37
2018-08-16T03:28:50.709Z,13.93
2018-08-16T03:31:19.774Z,14.77
2018-08-16T03:33:48.941Z,17.00
2018-08-16T03:36:18.403Z,16.43
2018-08-16T03:38:47.412Z,15.97
2018-08-16T03:41:16.072Z,15.03
2018-08-16T03:43:44.496Z,16.40
2018-08-16T03:46:13.008Z,15.50
2018-08-16T03:48:42.230Z,15.67
2018-08-16T03:51:10.651Z,17.00
2018-08-16T03:53:39.089Z,16.63
2018-08-16T03:56:07.656Z,16.50
2018-08-16T03:58:36.045Z,16.97
2018-08-16T04:01:04.656Z,16.30
2018-08-16T04:03:33.104Z,16.83
2018-08-16T04:06:01.528Z,17.87
2018-08-16T04:08:30.042Z,17.20
2018-08-16T04:10:58.489Z,17.07
2018-08-16T04:13:26.974Z,16.60
2018-08-16T04:15:55.468Z,15.93
2018-08-16T04:18:24.037Z,16.60
2018-08-16T04:20:52.491Z,16.40
2018-08-16T04:23:21.027Z,16.43
2018-08-16T04:25:49.498Z,17.40
2018-08-16T04:28:17.981Z,16.63
2018-08-16T04:30:46.469Z,17.17
2018-08-16T04:33:15.001Z,17.70
2018-08-16T04:35:43.460Z,16.50
2018-08-16T04:38:11.907Z,17.10
2018-08-16T04:40:40.346Z,16.47
2018-08-16T04:43:08.801Z,16.30
2018-08-16T04:45:37.818Z,15.60
2018-08-16T04:48:07.026Z,16.50
2018-08-16T04:50:35.449Z,15.30
2018-08-16T04:53:04.009Z,13.77
2018-08-16T04:55:32.631Z,13.43
2018-08-16T04:58:01.117Z,12.40
2018-08-16T05:00:29.659Z,12.67
2018-08-16T05:02:58.153Z,10.43
2018-08-16T05:05:26.880Z,10.50
2018-08-16T05:07:55.342Z,9.63
2018-08-16T05:10:23.920Z,10.40
2018-08-16T05:12:52.373Z,9.53
2018-08-16T05:15:20.792Z,8.70
2018-08-16T05:17:49.533Z,9.10
2018-08-16T05:20:18.000Z,8.50
2018-08-16T05:22:46.508Z,8.63
2018-08-16T05:25:14.966Z,9.40
2018-08-16T05:27:43.433Z,9.17
2018-08-16T05:30:12.867Z,8.50
2018-08-16T05:32:41.515Z,8.70
2018-08-16T05:35:10.037Z,8.73
2018-08-16T05:37:38.900Z,9.57
2018-08-16T05:40:09.213Z,9.33
2018-08-16T05:42:38.101Z,9.10
2018-08-16T05:45:06.865Z,10.20
2018-08-16T05:47:35.748Z,9.70
2018-08-16T05:50:06.477Z,10.77
2018-08-16T05:52:35.083Z,10.07
2018-08-16T05:55:03.593Z,10.13
2018-08-16T05:57:32.033Z,8.83
2018-08-16T06:00:00.615Z,9.70
2018-08-16T06:02:29.449Z,8.77
2018-08-16T06:04:57.976Z,11.10
2018-08-16T06:07:26.699Z,10.03
2018-08-16T06:09:55.499Z,10.13
2018-08-16T06:12:24.319Z,9.13
2018-08-16T06:14:52.801Z,10.37
2018-08-16T06:17:21.243Z,9.13
2018-08-16T06:19:49.753Z,9.67
2018-08-16T06:22:18.408Z,10.03
2018-08-16T06:24:47.005Z,10.83
2018-08-16T06:27:15.460Z,10.23
2018-08-16T06:29:44.058Z,11.13
2018-08-16T06:32:12.538Z,9.93
2018-08-16T06:34:41.405Z,9.13
2018-08-16T06:37:10.078Z,9.50
2018-08-16T06:39:38.648Z,10.30
2018-08-16T06:42:07.170Z,11.60
2018-08-16T06:44:35.700Z,10.30
2018-08-16T06:47:04.439Z,10.97
2018-08-16T06:49:32.918Z,10.70
2018-08-16T06:52:01.564Z,10.23
2018-08-16T06:54:30.094Z,10.70
2018-08-16T06:56:58.673Z,10.72
2018-08-16T06:59:27.175Z,12.68
2018-08-16T07:01:58.698Z,10.55
2018-08-16T07:04:27.186Z,9.75
2018-08-16T07:06:55.766Z,9.70
2018-08-16T07:09:24.283Z,10.90
2018-08-16T07:11:52.791Z,10.18
2018-08-16T07:14:21.677Z,10.50
2018-08-16T07:16:50.223Z,10.90
2018-08-16T07:19:18.981Z,10.55
2018-08-16T07:21:48.066Z,9.53
2018-08-16T07:24:16.821Z,9.95
2018-08-16T07:26:45.817Z,9.85
2018-08-16T07:29:14.438Z,9.65
2018-08-16T07:31:43.464Z,9.20
2018-08-16T07:34:12.838Z,8.88
2018-08-16T07:36:41.701Z,9.45
2018-08-16T07:39:11.740Z,8.70
2018-08-16T07:41:40.503Z,9.78
2018-08-16T07:44:09.435Z,10.45
2018-08-16T07:46:38.005Z,10.38
2018-08-16T07:49:06.473Z,9.78
2018-08-16T07:51:35.792Z,10.05
2018-08-16T07:54:04.646Z,9.85
2018-08-16T07:56:33.537Z,10.15
2018-08-16T07:59:02.801Z,9.90
2018-08-16T08:01:31.713Z,11.00
2018-08-16T08:04:00.552Z,9.33
2018-08-16T08:06:29.906Z,9.20
2018-08-16T08:08:58.987Z,9.78
2018-08-16T08:11:27.739Z,9.28
2018-08-16T08:13:56.433Z,9.80
2018-08-16T08:16:26.354Z,10.00
2018-08-16T08:18:55.533Z,10.65
2018-08-16T08:21:24.701Z,10.63
2018-08-16T08:23:53.239Z,11.08
2018-08-16T08:26:21.788Z,10.43
2018-08-16T08:28:50.394Z,10.23
2018-08-16T08:31:18.865Z,10.58
2018-08-16T08:33:47.878Z,9.10
2018-08-16T08:36:27.732Z,8.40
2018-08-16T08:38:56.249Z,8.70
2018-08-16T08:41:24.669Z,8.07
2018-08-16T08:44:19.264Z,7.63
2018-08-16T08:46:49.077Z,8.23
2018-08-16T08:49:17.793Z,8.37
2018-08-16T08:51:46.797Z,8.38
2018-08-16T08:54:32.556Z,8.78
2018-08-16T08:57:13.021Z,8.80
2018-08-16T08:59:41.958Z,8.75
2018-08-16T09:02:11.698Z,9.38
2018-08-16T09:04:40.766Z,8.35
2018-08-16T09:07:11.740Z,8.45
2018-08-16T09:09:51.720Z,7.55
2018-08-16T09:12:31.629Z,7.83
2018-08-16T09:15:11.489Z,6.75
2018-08-16T09:17:40.401Z,6.37
2018-08-16T09:20:09.533Z,6.33
2018-08-16T09:22:38.485Z,6.75
2018-08-16T09:25:07.644Z,15.93
2018-08-16T09:27:37.303Z,6.67
2018-08-16T09:30:18.431Z,6.35
2018-08-16T09:32:58.146Z,7.15
2018-08-16T09:35:27.699Z,7.17
2018-08-16T09:37:57.260Z,7.20
2018-08-16T09:40:26.953Z,7.15
2018-08-16T09:42:55.509Z,7.00
2018-08-16T09:45:35.328Z,7.42
2018-08-16T09:48:15.201Z,7.37
2018-08-16T09:50:43.900Z,7.25
2018-08-16T09:53:12.449Z,7.58
2018-08-16T09:55:41.550Z,7.92
2018-08-16T09:58:10.566Z,7.95
2018-08-16T10:00:44.791Z,6.83
2018-08-16T10:03:13.485Z,7.22
2018-08-16T10:05:42.555Z,17.65
2018-08-16T10:08:11.607Z,6.47
2018-08-16T10:10:41.131Z,7.42
2018-08-16T10:13:10.213Z,7.05
2018-08-16T10:15:39.114Z,6.58
2018-08-16T10:18:08.375Z,7.80
2018-08-16T10:20:37.678Z,7.15
2018-08-16T10:23:06.930Z,6.97
2018-08-16T10:25:35.819Z,7.03
2018-08-16T10:28:05.093Z,7.58
2018-08-16T10:30:34.174Z,7.17
2018-08-16T10:33:03.536Z,6.35
2018-08-16T10:35:32.885Z,7.78
2018-08-16T10:38:02.362Z,7.05
2018-08-16T10:40:32.167Z,8.28
2018-08-16T10:43:01.423Z,7.40
2018-08-16T10:45:30.261Z,7.78
2018-08-16T10:47:59.445Z,6.95
2018-08-16T10:50:29.551Z,7.62
2018-08-16T10:52:59.028Z,7.12
2018-08-16T10:55:28.043Z,7.30
2018-08-16T10:57:57.021Z,7.00
2018-08-16T11:00:26.282Z,7.62
2018-08-16T11:02:55.279Z,11.70
2018-08-16T11:05:24.945Z,7.12
2018-08-16T11:07:53.554Z,6.70
2018-08-16T11:10:22.416Z,7.25
2018-08-16T11:12:51.153Z,6.90
2018-08-16T11:15:19.804Z,7.27
2018-08-16T11:17:48.756Z,7.17
2018-08-16T11:20:17.251Z,7.63
2018-08-16T11:22:45.930Z,8.13
2018-08-16T11:25:14.647Z,10.00
2018-08-16T11:27:43.844Z,8.67
2018-08-16T11:30:12.750Z,7.83
2018-08-16T11:32:42.112Z,8.23
2018-08-16T11:35:11.536Z,8.00
2018-08-16T11:37:40.975Z,9.17
2018-08-16T11:40:10.398Z,7.40
2018-08-16T11:42:40.148Z,8.20
2018-08-16T11:45:09.329Z,8.33
2018-08-16T11:47:37.756Z,8.70
2018-08-16T11:50:06.583Z,7.77
2018-08-16T11:52:35.055Z,8.90
2018-08-16T11:55:03.593Z,8.80
2018-08-16T11:57:32.081Z,8.57
2018-08-16T12:00:00.499Z,8.27
2018-08-16T12:02:28.938Z,9.03
2018-08-16T12:04:57.385Z,8.90
2018-08-16T12:07:25.893Z,8.20
2018-08-16T12:09:54.341Z,7.97
2018-08-16T12:12:22.810Z,8.80
2018-08-16T12:14:51.297Z,9.63
2018-08-16T12:17:19.765Z,8.30
2018-08-16T12:19:48.337Z,7.90
2018-08-16T12:22:16.860Z,8.17
2018-08-16T12:24:45.394Z,8.33
2018-08-16T12:27:13.880Z,8.50
2018-08-16T12:29:42.433Z,8.07
2018-08-16T12:32:11.229Z,8.53
2018-08-16T12:34:39.705Z,8.93
2018-08-16T12:37:08.290Z,9.13
2018-08-16T12:39:36.736Z,8.73
2018-08-16T12:42:05.631Z,8.07
2018-08-16T12:44:34.277Z,8.00
2018-08-16T12:47:02.720Z,8.77
2018-08-16T12:49:31.184Z,9.40
2018-08-16T12:51:59.715Z,8.67
2018-08-16T12:54:28.169Z,7.93
2018-08-16T12:56:56.668Z,7.87
2018-08-16T12:59:25.150Z,8.87
2018-08-16T13:01:53.656Z,8.97
2018-08-16T13:04:22.069Z,8.97
2018-08-16T13:06:50.481Z,8.10
2018-08-16T13:09:19.189Z,8.27
2018-08-16T13:11:47.654Z,8.73
2018-08-16T13:14:16.168Z,7.57
2018-08-16T13:16:44.639Z,12.53
2018-08-16T13:19:13.132Z,10.07
2018-08-16T13:21:42.520Z,7.77
2018-08-16T13:24:10.966Z,8.20
2018-08-16T13:26:39.519Z,7.47
2018-08-16T13:29:08.248Z,7.00
2018-08-16T13:31:36.728Z,8.40
2018-08-16T13:34:05.201Z,7.93
2018-08-16T13:36:33.692Z,7.70
2018-08-16T13:39:02.112Z,7.37
2018-08-16T13:41:30.648Z,7.53
2018-08-16T13:43:59.152Z,9.77
2018-08-16T13:46:27.730Z,8.37
2018-08-16T13:48:56.232Z,36.30
2018-08-16T13:51:24.681Z,8.70
2018-08-16T13:53:53.190Z,8.97
2018-08-16T13:56:21.614Z,7.77
2018-08-16T13:58:50.066Z,9.20
2018-08-16T14:01:18.538Z,8.07
2018-08-16T14:03:46.980Z,8.53
2018-08-16T14:06:15.432Z,9.57
2018-08-16T14:08:43.869Z,8.20
2018-08-16T14:11:12.339Z,9.30
2018-08-16T14:13:40.799Z,7.57
2018-08-16T14:16:09.334Z,8.07
2018-08-16T14:18:37.893Z,8.07
2018-08-16T14:21:06.740Z,9.10
2018-08-16T14:23:35.467Z,9.13
2018-08-16T14:26:04.022Z,8.07
2018-08-16T14:28:32.460Z,8.67
2018-08-16T14:31:00.923Z,9.57
2018-08-16T14:33:29.365Z,7.60
2018-08-16T14:35:57.774Z,7.60
2018-08-16T14:38:26.279Z,8.50
2018-08-16T14:40:54.738Z,8.00
2018-08-16T14:43:24.046Z,8.60
2018-08-16T14:45:52.592Z,8.23
2018-08-16T14:48:21.399Z,7.70
2018-08-16T14:50:49.856Z,8.17
2018-08-16T14:53:18.333Z,8.20
2018-08-16T14:55:46.933Z,9.10
2018-08-16T14:58:15.414Z,8.10
2018-08-16T15:00:44.092Z,8.20
2018-08-16T15:03:12.574Z,7.30
2018-08-16T15:05:41.091Z,8.10
2018-08-16T15:08:09.556Z,8.20
2018-08-16T15:10:38.914Z,8.43
2018-08-16T15:13:07.461Z,9.60
2018-08-16T15:15:35.879Z,8.07
2018-08-16T15:18:04.345Z,7.63
2018-08-16T15:20:32.965Z,8.67
2018-08-16T15:23:01.433Z,8.73
2018-08-16T15:25:30.066Z,8.77
2018-08-16T15:27:58.940Z,11.47
2018-08-16T15:30:27.525Z,9.13
2018-08-16T15:32:56.066Z,8.83
2018-08-16T15:35:24.686Z,8.23
2018-08-16T15:40:19.969Z,9.17
2018-08-16T15:42:48.559Z,8.23
2018-08-16T15:45:17.076Z,8.63
2018-08-16T15:47:45.605Z,8.40
2018-08-16T15:50:14.044Z,9.07
2018-08-16T15:52:42.524Z,7.97
2018-08-16T15:55:11.123Z,8.60
2018-08-16T15:57:39.844Z,9.03
2018-08-16T16:00:11.279Z,8.80
2018-08-16T16:02:41.457Z,9.10
2018-08-16T16:05:10.139Z,8.83
2018-08-16T16:07:38.641Z,8.80
2018-08-16T16:10:07.730Z,8.67
2018-08-16T16:12:36.285Z,9.37
2018-08-16T16:15:05.523Z,8.67
2018-08-16T16:17:34.079Z,9.50
2018-08-16T16:20:03.048Z,9.53
2018-08-16T16:22:31.707Z,9.33
2018-08-16T16:25:00.189Z,8.63
2018-08-16T16:27:28.671Z,9.73
2018-08-16T16:29:57.112Z,11.17
2018-08-16T16:32:25.597Z,9.27
2018-08-16T16:34:54.490Z,9.20
2018-08-16T16:37:23.047Z,9.33
2018-08-16T16:39:51.483Z,9.90
2018-08-16T16:42:19.955Z,11.10
2018-08-16T16:44:48.445Z,9.03
2018-08-16T16:47:17.048Z,9.63
2018-08-16T16:49:45.611Z,9.50
2018-08-16T16:52:14.109Z,10.67
2018-08-16T16:54:42.660Z,10.97
2018-08-16T16:57:11.292Z,9.47
2018-08-16T16:59:39.862Z,9.30
2018-08-16T17:02:08.673Z,9.03
2018-08-16T17:04:37.173Z,9.93
2018-08-16T17:07:05.761Z,9.43
2018-08-16T17:09:34.365Z,9.03
2018-08-16T17:12:02.860Z,9.90
2018-08-16T17:14:31.542Z,9.10
2018-08-16T17:17:00.077Z,9.73
2018-08-16T17:19:28.722Z,10.17
2018-08-16T17:21:57.201Z,9.97
2018-08-16T17:24:25.676Z,9.33
2018-08-16T17:26:54.605Z,9.40
2018-08-16T17:29:23.103Z,9.23
2018-08-16T17:31:51.608Z,10.27
2018-08-16T17:34:20.147Z,9.40
2018-08-16T17:36:48.737Z,9.20
2018-08-16T17:39:17.400Z,9.93
2018-08-16T17:41:45.905Z,9.50
2018-08-16T17:44:14.418Z,10.40
2018-08-16T17:46:42.962Z,9.00
2018-08-16T17:49:11.451Z,9.63
2018-08-16T17:51:40.002Z,9.53
2018-08-16T17:54:08.525Z,9.77
2018-08-16T17:56:37.034Z,9.23
2018-08-16T17:59:05.552Z,9.70
2018-08-16T18:01:34.113Z,9.73
2018-08-16T18:04:02.642Z,9.40
2018-08-16T18:06:31.142Z,10.43
2018-08-16T18:08:59.836Z,9.67
2018-08-16T18:11:28.349Z,9.83
2018-08-16T18:13:56.964Z,10.57
2018-08-16T18:16:25.649Z,10.30
2018-08-16T18:18:54.138Z,10.60
2018-08-16T18:21:22.902Z,11.60
2018-08-16T18:23:51.555Z,10.67
2018-08-16T18:26:20.139Z,10.07
2018-08-16T18:28:49.116Z,9.77
2018-08-16T18:31:17.662Z,9.33
2018-08-16T18:33:46.395Z,10.23
2018-08-16T18:36:15.033Z,10.47
2018-08-16T18:38:43.687Z,10.33
2018-08-16T18:41:12.708Z,10.90
2018-08-16T18:43:41.194Z,10.37
2018-08-16T18:46:09.724Z,10.33
2018-08-16T18:48:38.673Z,11.93
2018-08-16T18:51:07.322Z,10.67
2018-08-16T18:53:35.945Z,11.33
2018-08-16T18:56:04.490Z,10.40
2018-08-16T18:58:33.008Z,9.60
2018-08-16T19:01:01.539Z,10.50
2018-08-16T19:03:30.105Z,10.37
2018-08-16T19:05:58.652Z,10.33
2018-08-16T19:08:27.289Z,11.20
2018-08-16T19:10:55.885Z,9.97
2018-08-16T19:13:24.627Z,10.87
2018-08-16T19:15:53.054Z,10.67
2018-08-16T19:18:21.642Z,10.60
2018-08-16T19:20:50.156Z,10.67
2018-08-16T19:23:18.675Z,10.30
2018-08-16T19:25:47.213Z,11.67
2018-08-16T19:28:15.705Z,10.50
2018-08-16T19:30:44.331Z,10.97
2018-08-16T19:33:12.859Z,10.23
2018-08-16T19:35:41.520Z,11.27
2018-08-16T19:38:10.378Z,10.37
2018-08-16T19:40:38.915Z,11.17
2018-08-16T19:43:07.909Z,10.20
2018-08-16T19:45:36.486Z,10.63
2018-08-16T19:48:05.658Z,10.67
2018-08-16T19:50:33.985Z,10.40
2018-08-16T19:53:02.542Z,10.70
2018-08-16T19:55:31.423Z,10.10
2018-08-16T19:57:59.984Z,10.53
2018-08-16T20:00:28.558Z,9.93
2018-08-16T20:02:57.225Z,9.50
2018-08-16T20:05:25.915Z,10.43
2018-08-16T20:07:54.471Z,10.93
2018-08-16T20:10:23.241Z,9.50
2018-08-16T20:12:51.984Z,10.13
2018-08-16T20:15:20.528Z,10.23
2018-08-16T20:17:49.467Z,11.13
2018-08-16T20:20:18.059Z,9.60
2018-08-16T20:22:46.696Z,10.13
2018-08-16T20:25:15.261Z,10.30
2018-08-16T20:27:43.857Z,10.23
2018-08-16T20:30:12.587Z,10.37
2018-08-16T20:32:41.229Z,11.03
2018-08-16T20:35:09.743Z,10.90
2018-08-16T20:37:38.842Z,10.43
2018-08-16T20:40:07.421Z,10.90
2018-08-16T20:42:36.112Z,10.93
2018-08-16T20:45:05.514Z,10.00
2018-08-16T20:47:34.275Z,11.37
2018-08-16T20:50:02.922Z,10.53
2018-08-16T20:52:31.402Z,11.23
2018-08-16T20:55:00.217Z,10.23
2018-08-16T20:57:28.950Z,11.17
2018-08-16T20:59:57.503Z,11.30
2018-08-16T21:02:26.114Z,11.57
2018-08-16T21:04:55.015Z,11.40
2018-08-16T21:07:23.544Z,11.90
2018-08-16T21:09:52.431Z,11.80
2018-08-16T21:12:20.879Z,10.50
2018-08-16T21:14:49.566Z,12.27
2018-08-16T21:17:18.060Z,11.47
2018-08-16T21:19:46.615Z,10.93
2018-08-16T21:22:15.160Z,10.67
2018-08-16T21:24:43.665Z,11.40
2018-08-16T21:27:12.309Z,12.43
2018-08-16T21:29:40.813Z,11.00
2018-08-16T21:32:09.362Z,11.30
2018-08-16T21:34:37.909Z,11.00
2018-08-16T21:37:06.580Z,11.30
2018-08-16T21:39:35.082Z,11.17
2018-08-16T21:42:03.654Z,11.77
2018-08-16T21:44:32.455Z,11.70
2018-08-16T21:47:01.035Z,11.73
2018-08-16T21:49:29.915Z,12.10
2018-08-16T21:51:58.538Z,12.40
2018-08-16T21:54:27.290Z,12.23
2018-08-16T21:56:56.186Z,12.73
2018-08-16T21:59:24.658Z,12.33
2018-08-16T22:01:53.299Z,12.43
2018-08-16T22:04:21.780Z,12.40
2018-08-16T22:07:03.289Z,12.47
2018-08-16T22:09:31.918Z,13.27
2018-08-16T22:12:00.900Z,12.40
2018-08-16T22:14:29.454Z,12.40
2018-08-16T22:16:58.296Z,12.80
2018-08-16T22:19:27.243Z,13.43
2018-08-16T22:21:55.767Z,13.23
2018-08-16T22:24:24.283Z,13.03
2018-08-16T22:26:52.770Z,13.03
2018-08-16T22:29:21.217Z,12.80
2018-08-16T22:31:49.658Z,12.90
2018-08-16T22:34:18.105Z,13.60
2018-08-16T22:36:46.626Z,12.73
2018-08-16T22:39:15.114Z,13.07
2018-08-16T22:41:43.606Z,13.30
2018-08-16T22:44:12.081Z,12.63
2018-08-16T22:46:40.600Z,12.93
2018-08-16T22:49:09.062Z,14.67
2018-08-16T22:51:37.731Z,13.87
2018-08-16T22:54:06.210Z,14.07
2018-08-16T22:56:34.862Z,15.40
2018-08-16T22:59:03.429Z,13.37
2018-08-16T23:01:31.859Z,14.07
2018-08-16T23:04:00.377Z,14.03
2018-08-16T23:06:28.800Z,14.43
2018-08-16T23:08:57.296Z,14.60
2018-08-16T23:11:25.724Z,12.83
2018-08-16T23:13:54.182Z,13.80
2018-08-16T23:16:22.976Z,14.07
2018-08-16T23:18:51.455Z,14.67
2018-08-16T23:21:19.923Z,14.43
2018-08-16T23:23:48.688Z,14.13
2018-08-16T23:26:17.149Z,13.37
2018-08-16T23:28:45.612Z,15.00
2018-08-16T23:31:14.097Z,14.90
2018-08-16T23:33:42.540Z,14.67
2018-08-16T23:36:10.993Z,13.83
2018-08-16T23:38:39.424Z,14.43
2018-08-16T23:41:07.916Z,14.77
2018-08-16T23:43:36.360Z,15.10
2018-08-16T23:46:05.370Z,14.60
2018-08-16T23:48:33.801Z,14.27
2018-08-16T23:51:02.349Z,13.20
2018-08-16T23:53:30.834Z,14.77
2018-08-16T23:55:59.272Z,14.23
2018-08-16T23:58:27.781Z,14.73
